Tehachapi, CA (93561)

12:04 PM PDT on September 16, 2014 (GMT -0700)
KCATEHAC25 | Change Station
CLOSE
Current Station
Personal Weather Station
Location: Tehachapi, CA
Elevation: 7720 ft
Nearby Weather Stations

Elev 7720 ft 35.04 °N, 118.57 °W | Updated 10 seconds ago

Clear
Clear
82.9 °F
Feels Like 80 °F
N
5.4
Wind Variable Wind from East
Gusts 5.4 mph

Today
High -- | Low -- °F
--% Chance of Precip.
Yesterday
High -- | Low -- °F
Precip. -- in
6:37 AM 6:59 PM
Last Quarter, 43% visible
Pressure 30.05 in
Visibility 10.0 miles
Clouds Clear
Heat Index 80 °F
Dew Point 29 °F
Humidity 14%
Rainfall -999.00 in
Snow Depth 0 in , 0 in , 0 in
UV 9 out of 12
Pollen 7.60 out of 12
PM2.5 Good
Flu Activity Not available.
METAR KTSP 161855Z AUTO 32007KT 10SM CLR 30/08 A3005 RMK AO2

More Conditions Fewer Conditions

Pressure 30.05 in
Visibility 10.0 miles
Clouds Clear
Heat Index 80 °F
Dew Point 29 °F
Humidity 14%
Rainfall -999.00 in
Snow Depth 0 in , 0 in , 0 in
UV 9 out of 12
Pollen 7.60 out of 12
PM2.5 Good
Flu Activity Not available.
METAR KTSP 161855Z AUTO 32007KT 10SM CLR 30/08 A3005 RMK AO2

More Conditions Fewer Conditions

10-Day Weather Forecast

Almanac

Astronomy

Sep. 16, 2014 Rise Set
Actual Time 6:37 AM PDT 6:59 PM PDT
Civil Twilight 6:12 AM PDT 7:24 PM PDT
Nautical Twilight 5:42 AM PDT 7:54 PM PDT
Astronomical Twilight 5:12 AM PDT 8:24 PM PDT
Moon 12:01 AM PDT 2:17 PM PDT
Length of Visible Light 13h 12m
Length of Day
12h 21m
Tomorrow will be 2m 11s shorter.
Last Quarter, 43% of the Moon is Illuminated
Today
Last Quarter
Sep 24
New
Oct 1
First Quarter
Oct 8
Full
Oct 15
Last Quarter

Today's Extremes

State Highs State Lows

Community

WunderPhotos

Upload Photos

1,753,860 photos uploaded!

WunderBlogs® & News

Nearby

Air Quality

  Air Quality AQ Index Pollutant
Yesterday Unhealthy for Sensitive Groups
OZONE
Yesterday Good
PM2.5
Current Good
PM2.5
Tuesday Unhealthy for Sensitive Groups
OZONE
Wednesday Unhealthy for Sensitive Groups
OZONE
Thursday Unhealthy for Sensitive Groups
OZONE
Friday Unhealthy for Sensitive Groups
OZONE
Saturday Unhealthy for Sensitive Groups
OZONE

Snow Depth

Station Depth Elevation
Adin Mountain 0 in 6200 ft
Spratt Creek 0 in 6200 ft
Forestdale Creek 0 in 8029 ft
Blue Lakes 0 in 8000 ft
CSS Lab 3 in 6900 ft

Earthquake Activity

City Distance Mag. Time & Date
Inyokern, California 62 miles 3.2 5:56 PM PDT
2014-09-14
San Jacinto, California 129 miles 3.0 3:16 PM PDT
2014-09-14
Minimum magnitude displayed is 2.5.

Coastal Water Temperatures

Place Temperature
No Stations Reporting

Nearby Weather Stations